NY49 weather

Mesmer Airport
Niagara Falls, New York, United States

Public forecast

Using degrees Fahrenheit for public forecast. Weather courtesy of forecast.io.

METAR (pilot weather report)

Closest report is Niagara Falls International Airport, 7.1 nm (13.1 km) NNE. Retrieved 2019/06/16 22:53 UTC (1 hour ago):

KIAG 162253Z 09004KT 10SM BKN110 18/11 A2990 RMK AO2 RAB16E26 SLP125 P0000 T01830111

TAF (pilot weather forecast)

Closest forecast is Niagara Falls International Airport, 7.1 nm (13.1 km) NNE. Retrieved 2019/06/16 18:36 UTC (5 hours ago):

TAF KIAG 161734Z 1618/1718 04008KT P6SM OVC025 FM162000 05008KT P6SM SCT025 BKN040 FM170200 VRB03KT P6SM BKN060 FM170800 VRB03KT 3SM BR SCT060 FM171300 06008KT P6SM BKN100